Esneux, Belgium
Current Conditions -  °F | °C
As of 6:20 PM on Saturday 25 Oct 2014 (Local Time) from EBLG Reporting Station
Rain Showers Rain Showers  
Wind Chill: 54°   Ceiling: 2400
Heat Index: 54°   Visibility: 4mi
Dew Point: 52°   Wind: 6mph
Humidity: 94%   Direction: 220°SW
Pressure: 30.15"   Gusts: NA
Location:  50.54°N, 5.57°E
Report Text: EBLG 251620Z 22005KT 6000 -SHRA SCT013 BKN024 12/11 Q1021 NOSIG
Loading
Personal Weather Stations






























Interactive Weather Map New forecast layout! Learn more

10-Day Weather Forecast

Advertisements
Track Severe Weather on mobile